createdAt,value
2019-03-26T00:02:24.487Z,11.23
2019-03-26T00:04:53.049Z,11.70
2019-03-26T00:07:21.705Z,13.10
2019-03-26T00:09:50.263Z,18.23
2019-03-26T00:12:18.863Z,12.47
2019-03-26T00:14:47.427Z,13.77
2019-03-26T00:17:16.019Z,13.33
2019-03-26T00:19:44.590Z,13.43
2019-03-26T00:22:13.175Z,15.07
2019-03-26T00:24:41.736Z,13.27
2019-03-26T00:27:10.337Z,14.30
2019-03-26T00:29:38.891Z,13.07
2019-03-26T00:32:07.491Z,14.00
2019-03-26T00:34:36.112Z,16.30
2019-03-26T00:37:04.765Z,14.77
2019-03-26T00:39:33.327Z,13.10
2019-03-26T00:42:01.920Z,13.77
2019-03-26T00:44:30.483Z,12.97
2019-03-26T00:46:59.073Z,15.17
2019-03-26T00:49:27.641Z,18.07
2019-03-26T00:51:56.227Z,14.77
2019-03-26T00:54:24.791Z,16.30
2019-03-26T00:56:53.379Z,16.90
2019-03-26T00:59:21.950Z,13.67
2019-03-26T01:01:50.551Z,16.20
2019-03-26T01:04:31.784Z,15.40
2019-03-26T01:06:49.481Z,13.40
2019-03-26T01:09:18.057Z,13.73
2019-03-26T01:11:46.643Z,14.50
2019-03-26T01:14:15.267Z,13.53
2019-03-26T01:16:43.831Z,13.60
2019-03-26T01:19:12.427Z,13.13
2019-03-26T01:21:40.988Z,15.63
2019-03-26T01:24:09.583Z,13.87
2019-03-26T01:26:38.158Z,12.70
2019-03-26T01:29:07.015Z,13.83
2019-03-26T01:31:35.648Z,15.13
2019-03-26T01:34:04.312Z,13.50
2019-03-26T01:36:32.873Z,11.00
2019-03-26T01:39:01.472Z,12.40
2019-03-26T01:41:49.377Z,13.80
2019-03-26T01:44:17.949Z,13.73
2019-03-26T01:46:46.421Z,11.00
2019-03-26T01:49:14.943Z,12.13
2019-03-26T01:51:43.493Z,14.03
2019-03-26T01:54:12.086Z,15.90
2019-03-26T01:56:40.645Z,13.37
2019-03-26T01:59:09.154Z,8.23
2019-03-26T02:01:37.709Z,13.07
2019-03-26T02:04:06.291Z,11.80
2019-03-26T02:06:34.913Z,11.17
2019-03-26T02:09:04.157Z,13.17
2019-03-26T02:11:32.723Z,13.00
2019-03-26T02:14:01.307Z,10.47
2019-03-26T02:16:29.869Z,13.40
2019-03-26T02:18:58.449Z,12.10
2019-03-26T02:21:27.001Z,12.90
2019-03-26T02:23:55.659Z,10.93
2019-03-26T02:26:24.141Z,10.43
2019-03-26T02:28:52.731Z,7.87
2019-03-26T02:31:21.292Z,12.00
2019-03-26T02:33:49.866Z,11.87
2019-03-26T02:36:18.415Z,10.50
2019-03-26T02:38:47.004Z,14.77
2019-03-26T02:41:15.553Z,14.40
2019-03-26T02:43:44.143Z,13.40
2019-03-26T02:46:12.697Z,13.80
2019-03-26T02:48:41.277Z,14.43
2019-03-26T02:51:09.834Z,12.47
2019-03-26T02:53:38.422Z,16.10
2019-03-26T02:56:06.977Z,11.73
2019-03-26T02:58:35.601Z,19.03
2019-03-26T03:01:04.249Z,12.83
2019-03-26T03:03:32.894Z,16.97
2019-03-26T03:06:01.549Z,12.73
2019-03-26T03:08:30.102Z,13.60
2019-03-26T03:10:58.766Z,15.20
2019-03-26T03:13:27.324Z,16.07
2019-03-26T03:15:55.923Z,14.87
2019-03-26T03:18:24.458Z,13.97
2019-03-26T03:20:53.042Z,14.10
2019-03-26T03:23:21.588Z,14.93
2019-03-26T03:25:50.175Z,15.27
2019-03-26T03:28:18.717Z,14.53
2019-03-26T03:30:47.299Z,16.87
2019-03-26T03:33:15.854Z,17.53
2019-03-26T03:35:52.274Z,11.63
2019-03-26T03:38:14.653Z,15.20
2019-03-26T03:40:43.251Z,13.90
2019-03-26T03:43:11.817Z,14.23
2019-03-26T03:45:40.939Z,15.17
2019-03-26T03:48:10.441Z,13.73
2019-03-26T03:50:40.170Z,13.80
2019-03-26T03:53:10.272Z,10.43
2019-03-26T03:55:38.913Z,12.43
2019-03-26T03:58:07.600Z,12.80
2019-03-26T04:00:40.124Z,13.17
2019-03-26T04:03:09.512Z,12.23
2019-03-26T04:05:38.332Z,11.07
2019-03-26T04:08:07.028Z,12.33
2019-03-26T04:10:35.674Z,11.47
2019-03-26T04:13:04.163Z,12.57
2019-03-26T04:15:35.089Z,11.40
2019-03-26T04:18:03.016Z,13.97
2019-03-26T04:20:31.610Z,13.47
2019-03-26T04:23:00.154Z,14.53
2019-03-26T04:25:28.805Z,12.63
2019-03-26T04:27:57.434Z,12.20
2019-03-26T04:30:30.039Z,12.30
2019-03-26T04:32:58.581Z,11.00
2019-03-26T04:35:27.173Z,13.73
2019-03-26T04:37:55.729Z,13.23
2019-03-26T04:40:24.337Z,11.73
2019-03-26T04:42:52.889Z,12.13
2019-03-26T04:45:21.443Z,15.23
2019-03-26T04:47:50.032Z,12.90
2019-03-26T04:50:18.577Z,11.97
2019-03-26T04:52:47.161Z,14.37
2019-03-26T04:55:15.713Z,14.07
2019-03-26T04:57:44.221Z,12.27
2019-03-26T05:00:13.256Z,14.00
2019-03-26T05:02:41.831Z,13.00
2019-03-26T05:05:12.372Z,14.43
2019-03-26T05:07:40.627Z,14.23
2019-03-26T05:10:09.421Z,13.90
2019-03-26T05:12:37.939Z,15.60
2019-03-26T05:15:06.741Z,14.80
2019-03-26T05:17:35.329Z,14.10
2019-03-26T05:20:05.522Z,16.47
2019-03-26T05:22:34.251Z,14.17
2019-03-26T05:25:02.991Z,15.83
2019-03-26T05:27:44.587Z,18.40
2019-03-26T05:30:01.778Z,13.90
2019-03-26T05:32:30.361Z,13.93
2019-03-26T05:34:58.925Z,14.20
2019-03-26T05:37:27.521Z,14.50
2019-03-26T05:39:56.071Z,15.33
2019-03-26T05:42:24.691Z,14.50
2019-03-26T05:44:53.221Z,15.93
2019-03-26T05:47:21.743Z,16.13
2019-03-26T05:49:50.310Z,16.93
2019-03-26T05:52:18.901Z,13.97
2019-03-26T05:54:47.448Z,14.10
2019-03-26T05:57:16.035Z,13.50
2019-03-26T05:59:44.591Z,15.47
2019-03-26T06:02:15.114Z,16.83
2019-03-26T06:04:43.379Z,14.37
2019-03-26T06:07:11.971Z,14.53
2019-03-26T06:09:40.518Z,14.33
2019-03-26T06:12:09.111Z,15.07
2019-03-26T06:14:37.758Z,13.70
2019-03-26T06:17:06.379Z,11.80
2019-03-26T06:19:34.983Z,14.43
2019-03-26T06:22:03.604Z,14.30
2019-03-26T06:24:32.186Z,15.60
2019-03-26T06:27:00.755Z,13.17
2019-03-26T06:29:29.335Z,13.10
2019-03-26T06:31:57.888Z,14.07
2019-03-26T06:34:26.474Z,12.37
2019-03-26T06:36:55.026Z,12.30
2019-03-26T06:39:23.621Z,12.00
2019-03-26T06:41:52.179Z,14.33
2019-03-26T06:44:20.765Z,13.40
2019-03-26T06:46:49.241Z,14.60
2019-03-26T06:49:17.840Z,15.27
2019-03-26T06:51:46.393Z,15.47
2019-03-26T06:54:14.979Z,18.07
2019-03-26T06:56:43.548Z,17.07
2019-03-26T06:59:12.130Z,16.00
2019-03-26T07:01:40.755Z,15.60
2019-03-26T07:04:09.601Z,12.93
2019-03-26T07:06:38.169Z,13.30
2019-03-26T07:09:07.699Z,13.70
2019-03-26T07:11:36.423Z,13.60
2019-03-26T07:14:05.081Z,15.70
2019-03-26T07:16:33.707Z,16.23
2019-03-26T07:19:02.295Z,13.67
2019-03-26T07:21:30.849Z,14.40
2019-03-26T07:23:59.441Z,15.50
2019-03-26T07:26:28.067Z,14.50
2019-03-26T07:28:56.990Z,16.50
2019-03-26T07:31:25.601Z,17.10
2019-03-26T07:33:54.165Z,17.67
2019-03-26T07:36:22.676Z,15.10
2019-03-26T07:38:51.242Z,17.27
2019-03-26T07:41:19.831Z,20.17
2019-03-26T07:43:48.394Z,18.50
2019-03-26T07:46:16.982Z,20.27
2019-03-26T07:48:45.541Z,20.63
2019-03-26T07:51:14.129Z,20.17
2019-03-26T07:53:42.753Z,20.70
2019-03-26T07:56:11.275Z,22.37
2019-03-26T07:58:39.835Z,20.27
2019-03-26T08:01:08.423Z,20.10
2019-03-26T08:03:36.970Z,25.93
2019-03-26T08:06:05.555Z,20.77
2019-03-26T08:08:34.108Z,27.30
2019-03-26T08:11:02.689Z,25.13
2019-03-26T08:13:31.263Z,24.47
2019-03-26T08:15:59.868Z,23.73
2019-03-26T08:18:28.444Z,22.43
2019-03-26T08:20:57.583Z,28.10
2019-03-26T08:23:26.221Z,26.73
2019-03-26T08:25:54.731Z,32.17
2019-03-26T08:28:23.289Z,26.90
2019-03-26T08:30:51.879Z,28.47
2019-03-26T08:33:23.230Z,24.13
2019-03-26T08:35:50.666Z,27.53
2019-03-26T08:38:19.222Z,29.33
2019-03-26T08:40:47.801Z,31.63
2019-03-26T08:43:16.360Z,26.83
2019-03-26T08:45:44.945Z,33.33
2019-03-26T08:48:13.497Z,28.53
2019-03-26T08:50:42.002Z,31.00
2019-03-26T08:53:10.485Z,32.20
2019-03-26T08:55:39.070Z,28.40
2019-03-26T08:58:07.635Z,26.03
2019-03-26T09:00:36.226Z,29.87
2019-03-26T09:03:04.838Z,33.80
2019-03-26T09:05:33.526Z,27.43
2019-03-26T09:08:02.315Z,30.50
2019-03-26T09:10:30.862Z,29.50
2019-03-26T09:12:59.442Z,29.73
2019-03-26T09:15:28.069Z,25.67
2019-03-26T09:17:56.654Z,26.00
2019-03-26T09:20:25.198Z,26.37
2019-03-26T09:22:53.782Z,18.10
2019-03-26T09:25:22.342Z,15.40
2019-03-26T09:27:52.441Z,19.03
2019-03-26T09:30:21.212Z,19.40
2019-03-26T09:32:49.793Z,18.87
2019-03-26T09:35:18.410Z,16.20
2019-03-26T09:37:46.992Z,17.67
2019-03-26T09:40:16.883Z,15.50
2019-03-26T09:42:45.472Z,17.83
2019-03-26T09:45:15.265Z,14.47
2019-03-26T09:47:43.847Z,18.87
2019-03-26T09:50:12.579Z,15.10
2019-03-26T09:52:41.235Z,17.73
2019-03-26T09:55:10.318Z,17.73
2019-03-26T09:57:38.913Z,19.00
2019-03-26T10:00:10.193Z,12.80
2019-03-26T10:02:38.779Z,15.57
2019-03-26T10:05:07.564Z,13.47
2019-03-26T10:07:36.070Z,17.70
2019-03-26T10:10:07.237Z,16.83
2019-03-26T10:12:35.819Z,15.93
2019-03-26T10:15:06.976Z,18.80
2019-03-26T10:17:35.735Z,14.27
2019-03-26T10:20:07.030Z,13.50
2019-03-26T10:22:37.353Z,12.43
2019-03-26T10:25:11.035Z,14.73
2019-03-26T10:27:39.475Z,14.13
2019-03-26T10:30:09.859Z,11.43
2019-03-26T10:32:38.956Z,12.00
2019-03-26T10:35:07.909Z,12.57
2019-03-26T10:37:36.462Z,10.53
2019-03-26T10:40:08.538Z,9.93
2019-03-26T10:42:37.101Z,17.90
2019-03-26T10:45:07.719Z,12.10
2019-03-26T10:47:36.407Z,10.57
2019-03-26T10:50:08.439Z,9.07
2019-03-26T10:52:36.986Z,13.17
2019-03-26T10:55:06.641Z,10.37
2019-03-26T10:57:35.658Z,12.17
2019-03-26T11:00:06.849Z,10.90
2019-03-26T11:02:35.398Z,11.23
2019-03-26T11:05:07.517Z,8.50
2019-03-26T11:07:36.142Z,7.50
2019-03-26T11:10:06.808Z,9.97
2019-03-26T11:12:35.422Z,16.53
2019-03-26T11:15:06.844Z,5.37
2019-03-26T11:17:35.452Z,9.93
2019-03-26T11:20:04.860Z,8.83
2019-03-26T11:22:33.415Z,7.57
2019-03-26T11:25:02.154Z,8.53
2019-03-26T11:27:30.633Z,6.33
2019-03-26T11:29:59.130Z,6.50
2019-03-26T11:32:27.613Z,5.83
2019-03-26T11:34:56.189Z,7.23
2019-03-26T11:37:24.735Z,5.47
2019-03-26T11:39:53.289Z,6.07
2019-03-26T11:42:21.862Z,6.00
2019-03-26T11:44:50.409Z,5.90
2019-03-26T11:47:18.981Z,7.40
2019-03-26T11:49:47.529Z,7.30
2019-03-26T11:52:16.141Z,7.37
2019-03-26T11:54:44.690Z,7.90
2019-03-26T11:57:13.264Z,9.37
2019-03-26T11:59:41.745Z,7.17
2019-03-26T12:02:11.498Z,8.27
2019-03-26T12:04:40.086Z,10.33
2019-03-26T12:07:08.639Z,5.63
2019-03-26T12:09:46.140Z,6.80
2019-03-26T12:12:07.414Z,6.33
2019-03-26T12:14:35.990Z,8.10
2019-03-26T12:17:04.543Z,5.67
2019-03-26T12:19:33.291Z,6.53
2019-03-26T12:22:01.843Z,7.70
2019-03-26T12:24:30.422Z,7.23
2019-03-26T12:26:58.910Z,14.33
2019-03-26T12:29:27.491Z,9.03
2019-03-26T12:31:56.040Z,7.97
2019-03-26T12:34:24.886Z,11.60
2019-03-26T12:36:53.439Z,9.70
2019-03-26T12:39:22.019Z,10.20
2019-03-26T12:41:50.570Z,8.13
2019-03-26T12:44:19.162Z,9.50
2019-03-26T12:46:47.709Z,9.00
2019-03-26T12:49:16.287Z,10.57
2019-03-26T12:51:44.846Z,10.03
2019-03-26T12:54:13.426Z,11.07
2019-03-26T12:56:41.902Z,8.87
2019-03-26T12:59:10.482Z,8.13
2019-03-26T13:01:39.039Z,12.33
2019-03-26T13:04:12.869Z,9.50
2019-03-26T13:06:37.818Z,6.93
2019-03-26T13:09:08.436Z,8.00
2019-03-26T13:11:37.056Z,7.27
2019-03-26T13:14:05.698Z,7.37
2019-03-26T13:16:34.247Z,9.03
2019-03-26T13:19:02.891Z,6.00
2019-03-26T13:21:31.448Z,7.53
2019-03-26T13:24:00.031Z,5.97
2019-03-26T13:26:28.578Z,5.70
2019-03-26T13:28:57.223Z,5.13
2019-03-26T13:31:25.769Z,4.80
2019-03-26T13:33:54.354Z,6.73
2019-03-26T13:36:22.911Z,6.10
2019-03-26T13:38:51.482Z,6.33
2019-03-26T13:41:20.045Z,9.60
2019-03-26T13:43:48.662Z,10.40
2019-03-26T13:46:17.247Z,6.67
2019-03-26T13:48:45.798Z,7.67
2019-03-26T13:51:14.384Z,7.23
2019-03-26T13:53:42.929Z,6.17
2019-03-26T13:56:11.575Z,6.40
2019-03-26T13:58:40.122Z,7.50
2019-03-26T14:01:28.043Z,4.97
2019-03-26T14:03:56.604Z,8.07
2019-03-26T14:06:25.192Z,3.27
2019-03-26T14:08:53.738Z,7.40
2019-03-26T14:11:22.314Z,7.13
2019-03-26T14:13:51.035Z,5.80
2019-03-26T14:16:19.612Z,7.90
2019-03-26T14:18:48.158Z,8.57
2019-03-26T14:21:16.734Z,8.37
2019-03-26T14:23:45.290Z,8.37
2019-03-26T14:26:13.874Z,13.80
2019-03-26T14:28:42.434Z,5.70
2019-03-26T14:31:11.022Z,6.90
2019-03-26T14:33:39.575Z,7.97
2019-03-26T14:36:08.146Z,5.97
2019-03-26T14:38:36.638Z,6.40
2019-03-26T14:41:05.214Z,6.27
2019-03-26T14:43:33.770Z,7.93
2019-03-26T14:46:02.273Z,5.57
2019-03-26T14:48:30.825Z,4.93
2019-03-26T14:50:59.416Z,9.17
2019-03-26T14:53:27.957Z,5.40
2019-03-26T14:55:56.604Z,8.57
2019-03-26T14:58:25.178Z,3.73
2019-03-26T15:00:53.754Z,7.53
2019-03-26T15:03:22.312Z,6.23
2019-03-26T15:05:50.902Z,9.33
2019-03-26T15:08:19.465Z,6.93
2019-03-26T15:10:48.103Z,9.47
2019-03-26T15:13:16.658Z,8.83
2019-03-26T15:15:45.242Z,5.77
2019-03-26T15:18:13.804Z,7.87
2019-03-26T15:20:42.378Z,8.00
2019-03-26T15:23:10.926Z,9.37
2019-03-26T15:25:39.508Z,9.50
2019-03-26T15:28:11.445Z,4.70
2019-03-26T15:30:38.546Z,8.40
2019-03-26T15:33:07.102Z,5.67
2019-03-26T15:35:35.702Z,9.13
2019-03-26T15:38:04.314Z,10.33
2019-03-26T15:40:32.967Z,7.20
2019-03-26T15:43:01.518Z,4.30
2019-03-26T15:45:30.063Z,8.27
2019-03-26T15:47:58.658Z,10.73
2019-03-26T15:50:41.453Z,8.83
2019-03-26T15:53:10.139Z,6.67
2019-03-26T15:55:39.124Z,6.47
2019-03-26T15:58:07.770Z,6.87
2019-03-26T16:00:36.386Z,8.90
2019-03-26T16:03:05.103Z,6.13
2019-03-26T16:05:33.719Z,7.17
2019-03-26T16:08:02.569Z,7.23
2019-03-26T16:10:31.124Z,6.83
2019-03-26T16:12:59.700Z,7.33
2019-03-26T16:15:28.319Z,7.57
2019-03-26T16:17:56.898Z,8.33
2019-03-26T16:20:25.378Z,11.07
2019-03-26T16:22:53.900Z,10.17
2019-03-26T16:25:22.442Z,5.13
2019-03-26T16:27:51.019Z,9.93
2019-03-26T16:30:20.522Z,6.93
2019-03-26T16:32:49.102Z,8.07
2019-03-26T16:35:17.654Z,7.07
2019-03-26T16:37:46.243Z,6.90
2019-03-26T16:40:14.943Z,6.63
2019-03-26T16:42:43.519Z,7.20
2019-03-26T16:45:12.213Z,10.23
2019-03-26T16:47:40.791Z,6.17
2019-03-26T16:50:09.477Z,9.23
2019-03-26T16:52:38.125Z,5.63
2019-03-26T16:55:07.143Z,9.23
2019-03-26T16:57:35.823Z,7.03
2019-03-26T17:00:07.076Z,4.43
2019-03-26T17:02:35.658Z,5.43
2019-03-26T17:05:06.561Z,6.90
2019-03-26T17:07:35.150Z,6.27
2019-03-26T17:10:05.134Z,5.97
2019-03-26T17:12:33.731Z,7.77
2019-03-26T17:15:02.289Z,6.33
2019-03-26T17:17:30.871Z,10.80
2019-03-26T17:19:59.411Z,8.47
2019-03-26T17:22:27.995Z,9.53
2019-03-26T17:24:56.470Z,8.10
2019-03-26T17:27:25.046Z,7.53
2019-03-26T17:29:53.606Z,8.70
2019-03-26T17:32:22.182Z,12.77
2019-03-26T17:34:50.734Z,7.47
2019-03-26T17:37:19.287Z,11.40
2019-03-26T17:39:47.875Z,10.37
2019-03-26T17:42:17.661Z,8.33
2019-03-26T17:44:46.418Z,7.80
2019-03-26T17:47:14.971Z,12.97
2019-03-26T17:49:43.570Z,11.27
2019-03-26T17:52:12.156Z,10.13
2019-03-26T17:54:40.746Z,12.57
2019-03-26T17:57:09.370Z,8.67
2019-03-26T17:59:37.952Z,11.33
2019-03-26T18:02:06.512Z,14.53
2019-03-26T18:04:35.462Z,11.50
2019-03-26T18:07:05.632Z,12.47
2019-03-26T18:09:34.450Z,13.17
2019-03-26T18:12:03.199Z,12.67
2019-03-26T18:14:31.846Z,12.27
2019-03-26T18:17:00.535Z,11.33
2019-03-26T18:19:29.126Z,7.97
2019-03-26T18:21:57.687Z,10.23
2019-03-26T18:24:26.255Z,9.80
2019-03-26T18:26:54.809Z,7.63
2019-03-26T18:29:23.380Z,7.70
2019-03-26T18:31:52.123Z,10.87
2019-03-26T18:34:20.710Z,7.83
2019-03-26T18:36:49.431Z,12.20
2019-03-26T18:39:18.013Z,11.53
2019-03-26T18:41:46.579Z,14.40
2019-03-26T18:44:15.158Z,13.67
2019-03-26T18:46:43.650Z,26.97
2019-03-26T18:49:12.334Z,10.70
2019-03-26T18:51:40.887Z,16.33
2019-03-26T18:54:09.466Z,16.30
2019-03-26T18:56:38.017Z,12.17
2019-03-26T18:59:06.538Z,14.47
2019-03-26T19:01:35.088Z,10.73
2019-03-26T19:04:03.670Z,10.50
2019-03-26T19:06:32.226Z,11.30
2019-03-26T19:09:00.812Z,11.97
2019-03-26T19:11:29.369Z,13.37
2019-03-26T19:13:58.023Z,10.40
2019-03-26T19:16:26.577Z,11.00
2019-03-26T19:18:55.178Z,11.87
2019-03-26T19:21:23.731Z,8.80
2019-03-26T19:24:03.405Z,9.57
2019-03-26T19:26:22.511Z,11.23
2019-03-26T19:28:51.115Z,9.17
2019-03-26T19:31:19.667Z,11.07
2019-03-26T19:33:48.215Z,9.83
2019-03-26T19:36:16.811Z,11.17
2019-03-26T19:38:45.363Z,13.00
2019-03-26T19:41:13.947Z,9.33
2019-03-26T19:43:42.499Z,12.80
2019-03-26T19:46:11.081Z,18.57
2019-03-26T19:48:39.707Z,12.97
2019-03-26T19:51:08.287Z,11.83
2019-03-26T19:53:36.849Z,11.87
2019-03-26T19:56:05.423Z,13.97
2019-03-26T19:58:33.983Z,13.13
2019-03-26T20:01:02.575Z,13.93
2019-03-26T20:03:31.123Z,14.07
2019-03-26T20:06:12.448Z,13.17
2019-03-26T20:08:29.928Z,13.40
2019-03-26T20:10:58.586Z,11.87
2019-03-26T20:13:27.138Z,11.20
2019-03-26T20:15:55.727Z,11.77
2019-03-26T20:18:24.276Z,13.00
2019-03-26T20:20:52.866Z,10.30
2019-03-26T20:23:21.419Z,13.03
2019-03-26T20:25:50.001Z,16.73
2019-03-26T20:28:18.559Z,15.87
2019-03-26T20:30:47.082Z,12.93
2019-03-26T20:33:15.711Z,13.40
2019-03-26T20:35:44.363Z,10.40
2019-03-26T20:38:13.050Z,10.30
2019-03-26T20:40:41.651Z,11.57
2019-03-26T20:43:10.209Z,12.57
2019-03-26T20:45:38.846Z,12.63
2019-03-26T20:48:07.340Z,13.37
2019-03-26T20:50:35.936Z,11.60
2019-03-26T20:53:04.582Z,12.53
2019-03-26T20:55:34.273Z,11.67
2019-03-26T20:58:03.353Z,12.13
2019-03-26T21:00:59.233Z,12.23
2019-03-26T21:03:27.798Z,10.13
2019-03-26T21:05:56.426Z,12.33
2019-03-26T21:08:24.983Z,19.67
2019-03-26T21:10:53.552Z,10.77
2019-03-26T21:13:22.215Z,9.83
2019-03-26T21:15:57.225Z,13.00
2019-03-26T21:18:21.162Z,12.77
2019-03-26T21:20:49.719Z,11.87
2019-03-26T21:23:18.311Z,9.93
2019-03-26T21:25:46.882Z,10.90
2019-03-26T21:28:15.487Z,8.03
2019-03-26T21:30:44.119Z,9.00
2019-03-26T21:33:12.727Z,8.70
2019-03-26T21:35:41.308Z,10.77
2019-03-26T21:38:09.879Z,9.50
2019-03-26T21:40:38.645Z,9.60
2019-03-26T21:43:07.249Z,12.27
2019-03-26T21:45:37.543Z,12.97
2019-03-26T21:48:07.291Z,11.23
2019-03-26T21:50:35.979Z,9.87
2019-03-26T21:53:05.112Z,10.30
2019-03-26T21:55:33.838Z,8.23
2019-03-26T21:58:02.423Z,9.80
2019-03-26T22:00:30.979Z,8.97
2019-03-26T22:02:59.679Z,10.17
2019-03-26T22:05:28.267Z,9.97
2019-03-26T22:07:56.865Z,11.80
2019-03-26T22:10:25.422Z,9.93
2019-03-26T22:12:54.061Z,9.00
2019-03-26T22:15:22.688Z,9.00
2019-03-26T22:17:51.344Z,8.10
2019-03-26T22:20:19.964Z,8.03
2019-03-26T22:22:48.591Z,10.23
2019-03-26T22:25:17.115Z,9.03
2019-03-26T22:27:45.704Z,11.50
2019-03-26T22:30:14.595Z,10.07
2019-03-26T22:32:43.180Z,9.37
2019-03-26T22:35:11.732Z,11.90
2019-03-26T22:37:40.336Z,11.93
2019-03-26T22:40:10.059Z,11.47
2019-03-26T22:42:38.693Z,8.50
2019-03-26T22:45:08.253Z,11.03
2019-03-26T22:47:40.595Z,11.93
2019-03-26T22:50:10.285Z,12.27
2019-03-26T22:52:39.008Z,10.93
2019-03-26T22:55:09.511Z,9.57
2019-03-26T22:57:38.552Z,10.80
2019-03-26T23:00:10.175Z,9.47
2019-03-26T23:02:38.898Z,11.13
2019-03-26T23:05:08.741Z,10.20
2019-03-26T23:07:37.287Z,9.13
2019-03-26T23:10:06.799Z,7.77
2019-03-26T23:12:35.398Z,9.93
2019-03-26T23:15:05.555Z,8.30
2019-03-26T23:17:34.152Z,13.33
2019-03-26T23:20:02.775Z,9.70
2019-03-26T23:22:31.369Z,8.93
2019-03-26T23:24:59.935Z,8.33
2019-03-26T23:27:28.518Z,8.23
2019-03-26T23:29:57.075Z,8.03
2019-03-26T23:32:25.660Z,6.43
2019-03-26T23:34:54.221Z,8.23
2019-03-26T23:37:22.780Z,7.97
2019-03-26T23:39:51.359Z,8.73
2019-03-26T23:42:19.912Z,9.97
2019-03-26T23:44:58.118Z,6.30
2019-03-26T23:47:18.695Z,6.97
2019-03-26T23:49:47.295Z,9.67
2019-03-26T23:52:15.919Z,8.70
2019-03-26T23:54:44.495Z,6.63
2019-03-26T23:57:13.043Z,8.63
2019-03-26T23:59:41.629Z,9.17
